Time;durP1;ratioP1;P1;durP2;ratioP2;P2;SDS_P1;SDS_P2;PMS_P1;PMS_P2;Temp;Humidity;BMP_temperature;BMP_pressure;BME280_temperature;BME280_humidity;BME280_pressure;Samples;Min_cycle;Max_cycle;Signal;HPM_P1;HPM_P2
2021/08/08 00:00:18;;;;;;;0.95;0.80;;;17.80;99.90;;;;;;4139991;28;20034;-71
2021/08/08 00:02:18;;;;;;;2.33;1.00;;;17.80;99.90;;;;;;4139360;28;20376;-71
2021/08/08 00:04:19;;;;;;;2.95;0.85;;;17.90;99.90;;;;;;4139192;28;20128;-71
2021/08/08 00:06:19;;;;;;;5.82;1.20;;;17.80;99.90;;;;;;4141792;28;20029;-71
2021/08/08 00:08:21;;;;;;;2.20;1.15;;;17.80;99.90;;;;;;4141204;28;20083;-71
2021/08/08 00:10:22;;;;;;;2.20;1.00;;;17.80;99.90;;;;;;4139693;28;20042;-71
2021/08/08 00:12:23;;;;;;;1.35;1.10;;;17.80;99.90;;;;;;4149451;28;20193;-71
2021/08/08 00:14:23;;;;;;;2.17;0.80;;;17.80;99.90;;;;;;4142499;28;20084;-71
2021/08/08 00:16:26;;;;;;;1.95;0.98;;;17.70;99.90;;;;;;4141876;28;20056;-71
2021/08/08 00:18:27;;;;;;;2.20;1.20;;;17.70;99.90;;;;;;4145002;28;20046;-71
2021/08/08 00:20:28;;;;;;;2.97;1.00;;;17.70;99.90;;;;;;4173962;28;20094;-71
2021/08/08 00:22:29;;;;;;;4.18;1.00;;;17.70;99.90;;;;;;4172419;28;20409;-71
2021/08/08 00:24:30;;;;;;;3.80;1.42;;;17.70;99.90;;;;;;4172487;28;20025;-71
2021/08/08 00:26:30;;;;;;;3.90;1.10;;;17.70;99.90;;;;;;4165842;28;20433;-71
2021/08/08 00:28:31;;;;;;;1.73;1.00;;;17.70;99.90;;;;;;4139795;28;20030;-71
2021/08/08 00:30:32;;;;;;;4.97;1.20;;;17.60;99.90;;;;;;4141379;28;20113;-71
2021/08/08 00:32:33;;;;;;;2.70;1.20;;;17.70;99.90;;;;;;4141001;28;20294;-71
2021/08/08 00:34:34;;;;;;;3.63;1.48;;;17.70;99.90;;;;;;4140929;28;20034;-71
2021/08/08 00:36:35;;;;;;;2.00;1.27;;;17.70;99.90;;;;;;4141046;28;20651;-71
2021/08/08 00:38:35;;;;;;;2.42;1.20;;;17.60;99.90;;;;;;4139527;28;20034;-71
2021/08/08 00:40:36;;;;;;;2.45;1.10;;;17.60;99.90;;;;;;4141200;28;20113;-71
2021/08/08 00:42:37;;;;;;;2.30;1.38;;;17.60;99.90;;;;;;4142683;28;20026;-71
2021/08/08 00:44:37;;;;;;;3.00;1.30;;;17.60;99.90;;;;;;4144205;28;20041;-71
2021/08/08 00:46:38;;;;;;;3.97;1.20;;;17.60;99.90;;;;;;4143052;28;20061;-71
2021/08/08 00:48:38;;;;;;;2.92;1.33;;;17.60;99.90;;;;;;4143626;28;20030;-71
2021/08/08 00:50:39;;;;;;;4.18;1.30;;;17.70;99.90;;;;;;4144404;28;20034;-71
2021/08/08 00:52:40;;;;;;;2.85;1.42;;;17.70;99.90;;;;;;4143905;28;20445;-71
2021/08/08 00:54:41;;;;;;;2.03;1.35;;;17.70;99.90;;;;;;4143413;28;20038;-71
2021/08/08 00:56:42;;;;;;;2.65;1.15;;;17.70;99.90;;;;;;4142581;28;20114;-71
2021/08/08 00:58:42;;;;;;;3.90;1.40;;;17.70;99.90;;;;;;4143571;28;20068;-71
2021/08/08 01:00:45;;;;;;;2.08;1.08;;;17.70;99.90;;;;;;4143664;28;20050;-71
2021/08/08 01:02:51;;;;;;;3.53;1.20;;;17.70;99.90;;;;;;4143821;28;20109;-71
2021/08/08 01:04:59;;;;;;;2.72;1.48;;;17.80;99.90;;;;;;4143400;28;20084;-71
2021/08/08 01:07:08;;;;;;;3.20;1.23;;;17.80;99.90;;;;;;4144005;28;20038;-71
2021/08/08 01:09:11;;;;;;;2.65;1.10;;;17.80;99.90;;;;;;4143589;28;20034;-71
2021/08/08 01:11:11;;;;;;;2.17;1.20;;;17.70;99.90;;;;;;4143830;28;20113;-71
2021/08/08 01:13:13;;;;;;;4.13;1.40;;;17.70;99.90;;;;;;4143710;28;20041;-71
2021/08/08 01:15:14;;;;;;;3.80;1.58;;;17.70;99.90;;;;;;4143354;28;20038;-71
2021/08/08 01:17:16;;;;;;;1.92;1.30;;;17.70;99.90;;;;;;4143479;28;20560;-71
2021/08/08 01:19:20;;;;;;;7.05;2.08;;;17.70;99.90;;;;;;4141752;28;20045;-71
2021/08/08 01:21:25;;;;;;;4.65;1.67;;;17.70;99.90;;;;;;4141626;28;20510;-71
2021/08/08 01:23:31;;;;;;;3.15;1.60;;;17.60;99.90;;;;;;4144873;28;20140;-71
2021/08/08 01:25:31;;;;;;;4.45;1.50;;;17.60;99.90;;;;;;4143248;28;20045;-71
2021/08/08 01:27:32;;;;;;;5.15;2.10;;;17.60;99.90;;;;;;4143113;28;20032;-71
2021/08/08 01:29:33;;;;;;;3.55;1.75;;;17.60;99.90;;;;;;4143333;28;20054;-71
2021/08/08 01:31:34;;;;;;;6.57;1.88;;;17.60;99.90;;;;;;4142677;28;20340;-71
2021/08/08 01:33:34;;;;;;;6.40;1.90;;;17.60;99.90;;;;;;4143041;28;20065;-71
2021/08/08 01:35:35;;;;;;;7.05;1.90;;;17.60;99.90;;;;;;4143195;28;20030;-71
2021/08/08 01:37:36;;;;;;;3.40;1.60;;;17.60;99.90;;;;;;4143250;28;20088;-71
2021/08/08 01:39:37;;;;;;;3.75;2.03;;;17.60;99.90;;;;;;4174159;28;20456;-71
2021/08/08 01:41:44;;;;;;;5.05;2.00;;;17.60;99.90;;;;;;4142955;28;20045;-71
2021/08/08 01:43:49;;;;;;;4.20;1.73;;;17.60;99.90;;;;;;4142387;28;20042;-71
2021/08/08 01:45:51;;;;;;;7.30;2.10;;;17.60;99.90;;;;;;4141200;28;20395;-71
2021/08/08 01:47:59;;;;;;;5.43;2.25;;;17.60;99.90;;;;;;4141442;28;20391;-71
2021/08/08 01:50:01;;;;;;;5.47;2.22;;;17.60;99.90;;;;;;4173188;28;20617;-71
2021/08/08 01:52:02;;;;;;;4.23;1.70;;;17.60;99.90;;;;;;4143200;28;20053;-71
2021/08/08 01:54:03;;;;;;;5.47;2.10;;;17.60;99.90;;;;;;4142798;28;20065;-71
2021/08/08 01:56:04;;;;;;;3.72;1.85;;;17.60;99.90;;;;;;4142543;28;20034;-71
2021/08/08 01:58:06;;;;;;;8.32;2.20;;;17.60;99.90;;;;;;4142974;28;20037;-71
2021/08/08 02:00:07;;;;;;;3.83;1.63;;;17.60;99.90;;;;;;4142419;28;20049;-71
2021/08/08 02:02:10;;;;;;;8.98;2.33;;;17.60;99.90;;;;;;4142864;28;20034;-71
2021/08/08 02:04:14;;;;;;;;;;;17.60;99.90;;;;;;4143015;28;20562;-71
2021/08/08 02:06:15;;;;;;;6.25;2.17;;;17.60;99.90;;;;;;4142252;28;19962;-71
2021/08/08 02:08:15;;;;;;;6.43;2.15;;;17.60;99.90;;;;;;4142994;28;20342;-71
2021/08/08 02:10:17;;;;;;;6.60;2.40;;;17.60;99.90;;;;;;4142885;28;20034;-71
2021/08/08 02:12:17;;;;;;;5.60;1.80;;;17.60;99.90;;;;;;4140974;28;20022;-71
2021/08/08 02:14:18;;;;;;;6.50;2.00;;;17.60;99.90;;;;;;4141253;28;20026;-71
2021/08/08 02:16:19;;;;;;;7.05;2.47;;;17.60;99.90;;;;;;4143042;28;20030;-71
2021/08/08 02:18:19;;;;;;;9.15;2.35;;;17.60;99.90;;;;;;4140933;28;20049;-71
2021/08/08 02:20:20;;;;;;;15.13;2.20;;;17.60;99.90;;;;;;4173112;28;20029;-71
2021/08/08 02:22:20;;;;;;;9.02;2.35;;;17.60;99.90;;;;;;4140816;28;20030;-71
2021/08/08 02:24:21;;;;;;;8.00;2.33;;;17.60;99.90;;;;;;4142811;28;20054;-71
2021/08/08 02:26:22;;;;;;;5.47;2.05;;;17.50;99.90;;;;;;4142714;28;20036;-71
2021/08/08 02:28:22;;;;;;;9.85;2.38;;;17.50;99.90;;;;;;4142449;28;20042;-71
2021/08/08 02:30:23;;;;;;;8.13;2.33;;;17.50;99.90;;;;;;4142881;28;20562;-71
2021/08/08 02:32:23;;;;;;;8.20;2.35;;;17.50;99.90;;;;;;4142736;28;20042;-71
2021/08/08 02:34:24;;;;;;;6.82;2.45;;;17.50;99.90;;;;;;4142252;28;20038;-71
2021/08/08 02:36:24;;;;;;;6.57;2.28;;;17.60;99.90;;;;;;4173467;28;20033;-71
2021/08/08 02:38:25;;;;;;;6.93;2.38;;;17.50;99.90;;;;;;4142397;28;20030;-71
2021/08/08 02:40:26;;;;;;;5.00;1.75;;;17.50;99.90;;;;;;4141878;28;20038;-71
2021/08/08 02:42:26;;;;;;;6.32;2.03;;;17.50;99.90;;;;;;4141070;28;20030;-71
2021/08/08 02:44:27;;;;;;;6.78;2.03;;;17.50;99.90;;;;;;4141047;28;20042;-71
2021/08/08 02:46:28;;;;;;;4.70;1.90;;;17.50;99.90;;;;;;4140415;28;20030;-71
2021/08/08 02:48:28;;;;;;;5.47;1.70;;;17.50;99.90;;;;;;4144884;28;20108;-71
2021/08/08 02:50:29;;;;;;;6.35;2.10;;;17.50;99.90;;;;;;4144633;28;20022;-71
2021/08/08 02:52:29;;;;;;;11.23;2.47;;;17.50;99.90;;;;;;4152856;28;20040;-71
2021/08/08 02:54:30;;;;;;;5.97;2.05;;;17.50;99.90;;;;;;4139014;28;20030;-71
2021/08/08 02:56:31;;;;;;;12.43;2.47;;;17.40;99.90;;;;;;4159250;28;20411;-71
2021/08/08 02:58:31;;;;;;;6.88;2.10;;;17.40;99.90;;;;;;4163598;28;20393;-71
2021/08/08 03:00:32;;;;;;;6.72;1.90;;;17.50;99.90;;;;;;4158294;28;20034;-71
2021/08/08 03:02:34;;;;;;;8.55;2.25;;;17.50;99.90;;;;;;4163546;28;20068;-71
2021/08/08 03:04:34;;;;;;;6.05;1.83;;;17.40;99.90;;;;;;4157641;28;20096;-71
2021/08/08 03:06:35;;;;;;;3.50;1.83;;;17.50;99.90;;;;;;4160770;28;20493;-71
2021/08/08 03:08:36;;;;;;;8.63;2.30;;;17.50;99.90;;;;;;4158184;28;26114;-71
2021/08/08 03:10:36;;;;;;;5.35;1.35;;;17.50;99.90;;;;;;4159790;28;20052;-71
2021/08/08 03:12:37;;;;;;;6.70;2.42;;;17.50;99.90;;;;;;4164656;28;20029;-71
2021/08/08 03:14:37;;;;;;;11.15;2.72;;;17.50;99.90;;;;;;4165985;28;20037;-71
2021/08/08 03:16:38;;;;;;;5.22;1.83;;;17.50;99.90;;;;;;4167593;28;20036;-71
2021/08/08 03:18:39;;;;;;;7.15;2.22;;;17.50;99.90;;;;;;4166049;28;20116;-71
2021/08/08 03:20:40;;;;;;;7.50;2.13;;;17.50;99.90;;;;;;4166260;28;20029;-71
2021/08/08 03:22:40;;;;;;;9.55;2.03;;;17.40;99.90;;;;;;4164353;28;20043;-71
2021/08/08 03:24:42;;;;;;;10.25;2.60;;;17.40;99.90;;;;;;4161754;28;20038;-71
2021/08/08 03:26:42;;;;;;;8.57;2.35;;;17.40;99.90;;;;;;4164209;28;20041;-71
2021/08/08 03:28:43;;;;;;;9.98;2.40;;;17.40;99.90;;;;;;4148349;28;20405;-71
2021/08/08 03:30:44;;;;;;;8.50;2.08;;;17.40;99.90;;;;;;4164251;28;20401;-71
2021/08/08 03:32:44;;;;;;;9.77;2.30;;;17.40;99.90;;;;;;4164494;28;20152;-71
2021/08/08 03:34:45;;;;;;;9.98;2.60;;;17.40;99.90;;;;;;4166983;28;20463;-71
2021/08/08 03:36:45;;;;;;;7.13;2.08;;;17.40;99.90;;;;;;4164022;28;20485;-71
2021/08/08 03:38:46;;;;;;;10.25;2.45;;;17.40;99.90;;;;;;4158100;28;20033;-71
2021/08/08 03:40:47;;;;;;;6.68;2.50;;;17.30;99.90;;;;;;4154969;28;20048;-71
2021/08/08 03:42:47;;;;;;;7.63;2.22;;;17.30;99.90;;;;;;4158016;28;20548;-71
2021/08/08 03:44:50;;;;;;;6.95;2.20;;;17.30;99.90;;;;;;4156716;28;20038;-71
2021/08/08 03:46:51;;;;;;;;;;;17.30;99.90;;;;;;4158455;28;20048;-71
2021/08/08 03:48:51;;;;;;;12.02;2.05;;;17.40;99.90;;;;;;4156492;28;19999;-71
2021/08/08 03:50:52;;;;;;;8.02;2.20;;;17.40;99.90;;;;;;4158173;28;20037;-71
2021/08/08 03:52:52;;;;;;;11.70;2.25;;;17.30;99.90;;;;;;4167740;28;20044;-71
2021/08/08 03:54:53;;;;;;;8.23;2.30;;;17.40;99.90;;;;;;4159832;28;20041;-71
2021/08/08 03:56:53;;;;;;;9.13;2.63;;;17.30;99.90;;;;;;4159545;28;20452;-71
2021/08/08 03:58:54;;;;;;;11.38;3.15;;;17.40;99.90;;;;;;4172779;28;20092;-71
2021/08/08 04:00:54;;;;;;;9.43;2.30;;;17.40;99.90;;;;;;4171714;28;20082;-71
2021/08/08 04:02:55;;;;;;;8.98;2.30;;;17.40;99.90;;;;;;4162161;28;20401;-71
2021/08/08 04:04:56;;;;;;;5.88;1.85;;;17.30;99.90;;;;;;4155673;28;20037;-71
2021/08/08 04:06:56;;;;;;;6.68;2.30;;;17.40;99.90;;;;;;4164719;28;20037;-71
2021/08/08 04:08:57;;;;;;;5.57;2.05;;;17.40;99.90;;;;;;4164577;28;20539;-71
2021/08/08 04:10:58;;;;;;;13.10;2.63;;;17.40;99.90;;;;;;4165894;28;20041;-71
2021/08/08 04:12:58;;;;;;;7.22;2.20;;;17.40;99.90;;;;;;4164194;28;20132;-72
2021/08/08 04:15:02;;;;;;;12.52;2.03;;;17.40;99.90;;;;;;4165081;28;20503;-71
2021/08/08 04:17:04;;;;;;;8.13;2.38;;;17.40;99.90;;;;;;4165529;28;20033;-71
2021/08/08 04:19:04;;;;;;;5.97;2.03;;;17.40;99.90;;;;;;4172841;28;20040;-71
2021/08/08 04:21:05;;;;;;;9.38;2.20;;;17.40;99.90;;;;;;4163588;28;20041;-71
2021/08/08 04:23:07;;;;;;;10.07;2.53;;;17.40;99.90;;;;;;4159972;28;20124;-71
2021/08/08 04:25:07;;;;;;;8.10;2.78;;;17.40;99.90;;;;;;4158466;28;21563;-71
2021/08/08 04:27:08;;;;;;;8.98;2.55;;;17.30;99.90;;;;;;4159207;28;20041;-71
2021/08/08 04:29:09;;;;;;;8.40;2.70;;;17.30;99.90;;;;;;4170941;28;20422;-71
2021/08/08 04:31:10;;;;;;;5.40;1.80;;;17.30;99.90;;;;;;4192044;28;20037;-71
2021/08/08 04:33:11;;;;;;;14.85;2.90;;;17.30;99.90;;;;;;4159956;28;20120;-71
2021/08/08 04:35:11;;;;;;;11.60;2.72;;;17.30;99.90;;;;;;4160837;28;20141;-71
2021/08/08 04:37:12;;;;;;;9.38;2.33;;;17.20;99.90;;;;;;4141747;28;20529;-71
2021/08/08 04:39:12;;;;;;;8.00;2.28;;;17.30;99.90;;;;;;4167508;28;20060;-71
2021/08/08 04:41:13;;;;;;;7.85;2.30;;;17.30;99.90;;;;;;4160777;28;20493;-71
2021/08/08 04:43:13;;;;;;;8.43;2.03;;;17.20;99.90;;;;;;4164650;28;20029;-71
2021/08/08 04:45:14;;;;;;;5.43;2.40;;;17.20;99.90;;;;;;4158545;28;20044;-71
2021/08/08 04:47:14;;;;;;;10.45;2.40;;;17.10;99.90;;;;;;4160372;28;20071;-71
2021/08/08 04:49:16;;;;;;;9.07;2.65;;;17.10;99.90;;;;;;4164091;28;20041;-71
2021/08/08 04:51:16;;;;;;;10.40;2.40;;;17.10;99.90;;;;;;4158508;28;20034;-72
2021/08/08 04:53:18;;;;;;;13.52;3.30;;;17.10;99.90;;;;;;4157390;28;20401;-71
2021/08/08 04:55:19;;;;;;;6.25;2.25;;;17.10;99.90;;;;;;4158598;28;20035;-71
2021/08/08 04:57:19;;;;;;;7.35;2.40;;;17.10;99.90;;;;;;4160440;28;20109;-71
2021/08/08 04:59:20;;;;;;;8.65;2.20;;;17.00;99.90;;;;;;4159285;28;20040;-71
2021/08/08 05:01:20;;;;;;;8.63;2.33;;;17.10;99.90;;;;;;4159035;28;20551;-71
2021/08/08 05:03:21;;;;;;;7.38;2.33;;;17.10;99.90;;;;;;4158694;28;20069;-71
2021/08/08 05:05:21;;;;;;;11.65;2.75;;;17.10;99.90;;;;;;4159633;28;20048;-71
2021/08/08 05:07:22;;;;;;;10.55;2.47;;;17.00;99.90;;;;;;4158844;28;20113;-71
2021/08/08 05:09:24;;;;;;;13.23;2.97;;;17.00;99.90;;;;;;4160176;28;20448;-71
2021/08/08 05:11:24;;;;;;;11.32;2.90;;;17.00;99.90;;;;;;4159894;28;20037;-71
2021/08/08 05:13:28;;;;;;;10.45;2.70;;;17.00;99.90;;;;;;4159970;28;20178;-71
2021/08/08 05:15:28;;;;;;;9.93;2.90;;;17.00;99.90;;;;;;4159803;28;20037;-71
2021/08/08 05:17:29;;;;;;;7.75;2.47;;;17.00;99.90;;;;;;4159954;28;20036;-71
2021/08/08 05:19:29;;;;;;;9.00;2.75;;;17.00;99.90;;;;;;4159902;28;20045;-71
2021/08/08 05:21:30;;;;;;;10.25;2.88;;;16.90;99.90;;;;;;4159409;28;20033;-71
2021/08/08 05:23:31;;;;;;;14.20;3.10;;;16.90;99.90;;;;;;4149387;28;20511;-71
2021/08/08 05:25:31;;;;;;;10.05;2.40;;;16.90;99.90;;;;;;4152657;28;20533;-71
2021/08/08 05:27:35;;;;;;;11.57;2.53;;;16.90;99.90;;;;;;4156694;28;20041;-71
2021/08/08 05:29:36;;;;;;;12.05;3.05;;;16.90;99.90;;;;;;4153766;28;20029;-71
2021/08/08 05:31:38;;;;;;;11.70;2.75;;;16.90;99.90;;;;;;4147706;28;20471;-71
2021/08/08 05:33:39;;;;;;;13.40;3.03;;;17.00;99.90;;;;;;4140689;28;20619;-71
2021/08/08 05:35:40;;;;;;;8.88;2.85;;;16.90;99.90;;;;;;4143382;28;20434;-72
2021/08/08 05:37:40;;;;;;;11.10;2.83;;;16.90;99.90;;;;;;4143637;28;20087;-71
2021/08/08 05:39:41;;;;;;;8.55;2.40;;;17.00;99.90;;;;;;4142895;28;20089;-71
2021/08/08 05:41:41;;;;;;;11.80;2.65;;;17.00;99.90;;;;;;4143351;28;20538;-71
2021/08/08 05:43:42;;;;;;;9.55;2.80;;;17.00;99.90;;;;;;4142846;28;20098;-71
2021/08/08 05:45:46;;;;;;;8.93;2.38;;;17.00;99.90;;;;;;4142564;28;20034;-71
2021/08/08 05:47:47;;;;;;;11.07;2.63;;;17.00;99.90;;;;;;4143324;28;20113;-71
2021/08/08 05:49:47;;;;;;;9.27;3.10;;;17.00;99.90;;;;;;4142631;28;20486;-72
2021/08/08 05:51:48;;;;;;;14.07;2.67;;;17.00;99.90;;;;;;4139917;28;20041;-71
2021/08/08 05:53:49;;;;;;;9.57;2.70;;;17.00;99.90;;;;;;4141163;28;20037;-71
2021/08/08 05:55:49;;;;;;;15.82;3.22;;;17.00;99.90;;;;;;4148497;28;20048;-72
2021/08/08 05:57:50;;;;;;;8.55;2.50;;;17.00;99.90;;;;;;4149152;28;20520;-71
2021/08/08 05:59:50;;;;;;;12.27;2.55;;;17.00;99.90;;;;;;4143432;28;20053;-71
2021/08/08 06:01:51;;;;;;;9.55;2.63;;;17.00;99.90;;;;;;4142454;28;20033;-71
2021/08/08 06:03:52;;;;;;;8.77;3.10;;;17.00;99.90;;;;;;4144760;28;20037;-71
2021/08/08 06:05:53;;;;;;;11.80;2.70;;;17.00;99.90;;;;;;4141312;28;21130;-71
2021/08/08 06:07:54;;;;;;;14.27;2.65;;;17.10;99.90;;;;;;4140235;28;20076;-71
2021/08/08 06:09:54;;;;;;;10.93;2.65;;;17.10;99.90;;;;;;4141210;28;20064;-72
2021/08/08 06:11:55;;;;;;;8.63;2.58;;;17.10;99.90;;;;;;4139462;28;20038;-72
2021/08/08 06:13:55;;;;;;;8.93;2.28;;;17.10;99.90;;;;;;4148897;28;20116;-72
2021/08/08 06:15:56;;;;;;;10.85;2.65;;;17.10;99.90;;;;;;4144796;28;20048;-72
2021/08/08 06:17:57;;;;;;;11.90;2.90;;;17.10;99.90;;;;;;4141946;28;20091;-72
2021/08/08 06:19:57;;;;;;;9.85;2.60;;;17.10;99.90;;;;;;4139648;28;20041;-72
2021/08/08 06:21:58;;;;;;;9.13;2.40;;;17.00;99.90;;;;;;4123574;28;20078;-72
2021/08/08 06:23:59;;;;;;;13.00;3.35;;;17.00;99.90;;;;;;4140836;28;20054;-72
2021/08/08 06:26:00;;;;;;;8.00;2.40;;;17.00;99.90;;;;;;4140448;28;20042;-72
2021/08/08 06:28:01;;;;;;;9.23;2.53;;;17.10;99.90;;;;;;4140670;28;20057;-72
2021/08/08 06:30:01;;;;;;;9.15;2.70;;;17.10;99.90;;;;;;4139327;28;20470;-72
2021/08/08 06:32:03;;;;;;;11.05;3.25;;;17.00;99.90;;;;;;4140176;28;20481;-72
2021/08/08 06:34:03;;;;;;;14.40;2.88;;;17.00;99.90;;;;;;4165398;28;20059;-72
2021/08/08 06:36:04;;;;;;;10.63;3.40;;;17.00;99.90;;;;;;4169392;28;20041;-72
2021/08/08 06:38:05;;;;;;;11.98;2.55;;;17.00;99.90;;;;;;4146892;28;20512;-72
2021/08/08 06:40:06;;;;;;;12.68;2.97;;;17.00;99.90;;;;;;4146673;28;20109;-72
2021/08/08 06:42:07;;;;;;;13.40;3.30;;;17.00;99.90;;;;;;4139176;28;20038;-72
2021/08/08 06:44:08;;;;;;;8.35;2.78;;;17.00;99.90;;;;;;4141486;28;20039;-72
2021/08/08 06:46:08;;;;;;;9.20;3.08;;;17.00;99.90;;;;;;4141585;28;20176;-72
2021/08/08 06:48:09;;;;;;;9.77;3.00;;;17.10;99.90;;;;;;4139771;28;20054;-72
2021/08/08 06:50:10;;;;;;;9.45;2.58;;;17.10;99.90;;;;;;4140596;28;20970;-72
2021/08/08 06:52:10;;;;;;;8.55;2.40;;;17.10;99.90;;;;;;4140070;28;20103;-72
2021/08/08 06:54:12;;;;;;;12.77;2.80;;;17.10;99.90;;;;;;4140194;28;20030;-72
2021/08/08 06:56:12;;;;;;;11.80;2.92;;;17.20;99.90;;;;;;4138872;28;20410;-72
2021/08/08 06:58:13;;;;;;;12.13;3.03;;;17.20;99.90;;;;;;4140519;28;20045;-72
2021/08/08 07:00:14;;;;;;;13.73;3.08;;;17.20;99.90;;;;;;4138758;28;20034;-72
2021/08/08 07:02:15;;;;;;;15.43;3.72;;;17.20;99.90;;;;;;4139318;28;20044;-72
2021/08/08 07:04:15;;;;;;;7.28;2.22;;;17.20;99.90;;;;;;4141239;28;20037;-72
2021/08/08 07:06:16;;;;;;;10.43;2.80;;;17.20;99.90;;;;;;4141838;28;20449;-72
2021/08/08 07:08:17;;;;;;;7.47;2.42;;;17.20;99.90;;;;;;4139583;28;20046;-72
2021/08/08 07:10:18;;;;;;;6.45;2.35;;;17.20;99.90;;;;;;4140180;28;20050;-72
2021/08/08 07:12:19;;;;;;;10.57;2.63;;;17.20;99.90;;;;;;4140473;28;20033;-72
2021/08/08 07:14:19;;;;;;;11.23;2.90;;;17.30;99.90;;;;;;4140319;28;20053;-72
2021/08/08 07:16:20;;;;;;;9.25;2.78;;;17.30;99.90;;;;;;4140983;28;20033;-72
2021/08/08 07:18:20;;;;;;;11.02;2.97;;;17.30;99.90;;;;;;4137882;28;20431;-72
2021/08/08 07:20:21;;;;;;;9.93;2.63;;;17.30;99.90;;;;;;4137750;28;20042;-72
2021/08/08 07:22:22;;;;;;;7.70;2.22;;;17.40;99.90;;;;;;4139730;28;20057;-72
2021/08/08 07:24:23;;;;;;;15.32;3.03;;;17.40;99.90;;;;;;4141202;28;20223;-72
2021/08/08 07:26:24;;;;;;;10.18;2.40;;;17.40;99.90;;;;;;4122235;28;20502;-72
2021/08/08 07:28:24;;;;;;;11.18;2.53;;;17.40;99.90;;;;;;4139713;28;20072;-72
2021/08/08 07:30:25;;;;;;;6.47;2.25;;;17.30;99.90;;;;;;4139624;28;20465;-72
2021/08/08 07:32:26;;;;;;;14.45;3.00;;;17.40;99.90;;;;;;4140520;28;20038;-72
2021/08/08 07:34:27;;;;;;;11.05;2.92;;;17.40;99.90;;;;;;4139181;28;20044;-72
2021/08/08 07:36:27;;;;;;;12.10;3.22;;;17.50;99.90;;;;;;4139525;28;20038;-72
2021/08/08 07:38:28;;;;;;;8.85;2.75;;;17.50;99.90;;;;;;4141194;28;20045;-72
2021/08/08 07:40:29;;;;;;;10.32;2.50;;;17.60;99.90;;;;;;4139118;28;20041;-72
2021/08/08 07:42:29;;;;;;;8.68;2.80;;;17.70;99.90;;;;;;4138827;28;20037;-72
2021/08/08 07:44:30;;;;;;;11.40;2.92;;;17.70;99.90;;;;;;4139495;28;20037;-72
2021/08/08 07:46:30;;;;;;;7.38;2.80;;;17.70;99.90;;;;;;4140439;28;20125;-72
2021/08/08 07:48:31;;;;;;;11.52;3.00;;;17.80;99.90;;;;;;4139371;28;20112;-72
2021/08/08 07:50:32;;;;;;;6.80;2.13;;;17.90;99.90;;;;;;4140608;28;20033;-73
2021/08/08 07:52:34;;;;;;;8.23;2.22;;;18.00;99.90;;;;;;4175752;28;20509;-72
2021/08/08 07:54:35;;;;;;;;;;;18.10;99.90;;;;;;4144840;28;20478;-72
2021/08/08 07:56:36;;;;;;;9.65;2.90;;;18.10;99.90;;;;;;4144346;28;19992;-72
2021/08/08 07:58:37;;;;;;;8.20;2.53;;;18.10;99.90;;;;;;4142195;28;21130;-73
2021/08/08 08:00:38;;;;;;;9.82;2.72;;;18.10;99.90;;;;;;4142066;28;20512;-72
2021/08/08 08:02:38;;;;;;;11.00;2.97;;;18.10;99.90;;;;;;4144220;28;20026;-72
2021/08/08 08:04:39;;;;;;;12.30;3.17;;;18.10;99.90;;;;;;4144136;28;20046;-72
2021/08/08 08:06:39;;;;;;;6.32;2.20;;;18.10;99.90;;;;;;4144734;28;20030;-72
2021/08/08 08:08:41;;;;;;;10.68;2.58;;;18.20;99.90;;;;;;4144748;28;20441;-72
2021/08/08 08:10:42;;;;;;;13.70;2.72;;;18.20;99.90;;;;;;4142464;28;20418;-72
2021/08/08 08:12:42;;;;;;;10.07;3.13;;;18.20;99.90;;;;;;4144522;28;20022;-72
2021/08/08 08:14:43;;;;;;;7.65;2.33;;;18.20;99.90;;;;;;4143076;28;20077;-74
2021/08/08 08:16:43;;;;;;;11.13;2.53;;;18.20;99.90;;;;;;4141720;28;20089;-72
2021/08/08 08:18:44;;;;;;;9.07;2.42;;;18.20;99.90;;;;;;4142745;28;20474;-72
2021/08/08 08:20:44;;;;;;;6.22;2.20;;;18.30;99.90;;;;;;4142639;28;20074;-73
2021/08/08 08:22:45;;;;;;;10.63;2.60;;;18.30;99.90;;;;;;4144461;28;20467;-72
2021/08/08 08:24:47;;;;;;;5.25;2.28;;;18.30;99.90;;;;;;4144440;28;20030;-72
2021/08/08 08:26:48;;;;;;;11.25;2.75;;;18.50;99.90;;;;;;4142041;28;20064;-72
2021/08/08 08:28:48;;;;;;;6.28;2.10;;;18.50;99.90;;;;;;4144573;28;20037;-72
2021/08/08 08:30:49;;;;;;;6.43;2.03;;;18.50;99.90;;;;;;4143080;28;20501;-72
2021/08/08 08:32:49;;;;;;;9.13;2.53;;;18.60;99.90;;;;;;4143575;28;20121;-72
2021/08/08 08:34:50;;;;;;;13.15;2.80;;;18.60;99.90;;;;;;4142498;28;20033;-72
2021/08/08 08:36:51;;;;;;;9.82;2.65;;;18.70;99.90;;;;;;4144760;28;20141;-72
2021/08/08 08:38:51;;;;;;;6.10;2.60;;;18.70;99.90;;;;;;4144346;28;20548;-72
2021/08/08 08:40:55;;;;;;;10.85;2.90;;;18.70;99.90;;;;;;4136695;28;20117;-72
2021/08/08 08:42:58;;;;;;;16.55;3.65;;;18.70;99.90;;;;;;4143205;28;20247;-72
2021/08/08 08:44:59;;;;;;;7.82;2.38;;;18.80;99.90;;;;;;4143789;28;20347;-72
2021/08/08 08:47:00;;;;;;;8.18;2.80;;;18.80;99.90;;;;;;4141574;28;20054;-72
2021/08/08 08:49:02;;;;;;;7.60;2.30;;;18.80;99.90;;;;;;4141587;28;20052;-72
2021/08/08 08:51:05;;;;;;;6.13;1.63;;;18.80;99.90;;;;;;4144147;28;20034;-72
2021/08/08 08:53:07;;;;;;;9.50;2.65;;;18.90;99.90;;;;;;4144133;28;20041;-72
2021/08/08 08:55:08;;;;;;;9.38;2.92;;;19.00;99.90;;;;;;4143634;28;20038;-73
2021/08/08 08:57:08;;;;;;;14.75;2.63;;;19.00;99.90;;;;;;4142811;28;20326;-73
2021/08/08 08:59:10;;;;;;;7.68;2.25;;;19.10;99.90;;;;;;4143606;28;20107;-72
2021/08/08 09:01:11;;;;;;;8.93;2.70;;;19.20;99.90;;;;;;4142102;28;20034;-72
2021/08/08 09:03:11;;;;;;;8.77;2.53;;;19.20;99.90;;;;;;4142866;28;20041;-72
2021/08/08 09:05:12;;;;;;;8.77;2.65;;;19.20;99.90;;;;;;4140189;28;20057;-73
2021/08/08 09:07:13;;;;;;;10.38;2.30;;;19.10;99.90;;;;;;4142258;28;20064;-72
2021/08/08 09:09:14;;;;;;;8.82;2.58;;;19.00;99.90;;;;;;4141595;28;20482;-72
2021/08/08 09:11:15;;;;;;;9.98;2.75;;;19.00;99.90;;;;;;4143567;28;20626;-72
2021/08/08 09:13:16;;;;;;;8.20;2.53;;;19.00;99.90;;;;;;4143780;28;20238;-72
2021/08/08 09:15:16;;;;;;;7.13;2.58;;;19.00;99.90;;;;;;4141202;28;20433;-72
2021/08/08 09:17:22;;;;;;;10.93;2.70;;;19.00;99.90;;;;;;4143790;28;20552;-72
2021/08/08 09:19:29;;;;;;;11.68;2.83;;;19.00;99.90;;;;;;4135241;28;20125;-72
2021/08/08 09:21:29;;;;;;;10.00;2.42;;;19.00;99.90;;;;;;4142528;28;20116;-72
2021/08/08 09:23:36;;;;;;;10.00;2.65;;;18.90;99.90;;;;;;4142748;28;20034;-72
2021/08/08 09:25:37;;;;;;;10.18;2.55;;;18.90;99.90;;;;;;4141187;28;20042;-72
2021/08/08 09:27:39;;;;;;;9.15;2.53;;;19.00;99.90;;;;;;4134330;28;20042;-72
2021/08/08 09:29:41;;;;;;;13.95;2.95;;;19.10;99.90;;;;;;4141102;28;20038;-72
2021/08/08 09:31:42;;;;;;;8.45;2.72;;;19.10;99.90;;;;;;4142367;28;20030;-72
2021/08/08 09:33:42;;;;;;;10.55;2.72;;;19.20;99.90;;;;;;4142791;28;20045;-73
2021/08/08 09:35:44;;;;;;;8.20;2.40;;;19.20;99.90;;;;;;4143228;28;20046;-72
2021/08/08 09:37:59;;;;;;;6.97;2.40;;;19.20;99.90;;;;;;4153036;28;20042;-73
2021/08/08 09:40:00;;;;;;;11.15;2.53;;;19.10;99.90;;;;;;4143673;28;20046;-72
2021/08/08 09:42:08;;;;;;;6.63;2.40;;;19.10;99.90;;;;;;4142639;28;20037;-72
2021/08/08 09:44:09;;;;;;;7.28;2.20;;;19.20;99.90;;;;;;4145222;28;20660;-72
2021/08/08 09:46:18;;;;;;;11.00;2.40;;;19.20;99.90;;;;;;4151251;28;20034;-73
2021/08/08 09:48:18;;;;;;;13.10;2.58;;;19.10;99.90;;;;;;4140683;28;20040;-72
2021/08/08 09:50:23;;;;;;;13.68;2.20;;;19.20;99.90;;;;;;4142037;28;20049;-72
2021/08/08 09:52:24;;;;;;;6.18;2.22;;;19.10;99.90;;;;;;4138210;28;20038;-72
2021/08/08 09:54:35;;;;;;;10.93;2.25;;;19.10;99.90;;;;;;4138839;28;20422;-72
2021/08/08 09:56:36;;;;;;;6.75;1.83;;;19.10;99.90;;;;;;4142885;28;20079;-72
2021/08/08 09:58:39;;;;;;;8.13;2.42;;;19.20;99.90;;;;;;4143218;28;20049;-72
2021/08/08 10:00:40;;;;;;;;;;;19.30;99.90;;;;;;4143786;28;20026;-73
2021/08/08 10:02:40;;;;;;;11.95;3.50;;;19.30;99.90;;;;;;4141980;28;20450;-73
2021/08/08 10:04:41;;;;;;;7.93;2.40;;;19.30;99.90;;;;;;4141671;28;20474;-73
2021/08/08 10:06:44;;;;;;;8.80;2.33;;;19.30;99.90;;;;;;4142953;28;20171;-72
2021/08/08 10:08:46;;;;;;;7.95;2.10;;;19.40;99.90;;;;;;4140267;28;20034;-73
2021/08/08 10:10:54;;;;;;;10.30;2.00;;;19.50;99.90;;;;;;4135198;28;20026;-72
2021/08/08 10:13:26;;;;;;;7.20;2.05;;;19.50;99.90;;;;;;4141333;28;20025;-72
2021/08/08 10:15:27;;;;;;;8.75;1.95;;;19.60;99.90;;;;;;4142596;28;20057;-72
2021/08/08 10:17:29;;;;;;;7.75;2.20;;;19.70;99.90;;;;;;4142590;28;20034;-72
2021/08/08 10:19:30;;;;;;;7.87;2.23;;;19.70;99.90;;;;;;4142737;28;20383;-73
2021/08/08 10:21:31;;;;;;;11.80;2.42;;;19.70;99.90;;;;;;4142372;28;20312;-72
2021/08/08 10:23:35;;;;;;;8.52;2.20;;;19.60;99.90;;;;;;4141412;28;20030;-73
2021/08/08 10:25:35;;;;;;;7.72;2.25;;;19.70;99.90;;;;;;4141657;28;20073;-73
2021/08/08 10:27:36;;;;;;;9.60;2.70;;;19.70;99.90;;;;;;4141086;28;20050;-73
2021/08/08 10:29:39;;;;;;;6.90;2.30;;;19.80;99.90;;;;;;4141200;28;20034;-73